Time,TemperatureF,DewpointF,PressureIn,WindDirection,WindDirectionDegrees,WindSpeedMPH,WindSpeedGustMPH,Humidity,HourlyPrecipIn,Conditions,Clouds,dailyrainin,SoftwareType,DateUTC
2013-04-28 00:03:00,71.0,64.0,-100.00,NW,324,1.0,4.0,79,0.00,,,0.00,,2013-04-28 10:03:00,
2013-04-28 00:12:00,71.0,64.0,-100.00,NW,324,1.0,4.0,79,0.00,,,0.00,,2013-04-28 10:12:00,
2013-04-28 00:22:00,71.0,64.0,-100.00,NW,324,1.0,4.0,79,0.00,,,0.00,,2013-04-28 10:22:00,
2013-04-28 00:32:00,71.0,64.0,-100.00,NW,324,1.0,4.0,79,0.00,,,0.00,,2013-04-28 10:32:00,
2013-04-28 00:41:00,72.0,65.0,-100.00,NE,37,3.0,6.0,80,0.00,,,0.00,,2013-04-28 10:41:00,
2013-04-28 01:02:00,72.0,65.0,-100.00,NE,37,3.0,6.0,80,0.00,,,0.00,,2013-04-28 11:02:00,
2013-04-28 01:11:00,72.0,65.0,-100.00,NE,37,3.0,6.0,80,0.00,,,0.00,,2013-04-28 11:11:00,
2013-04-28 01:21:00,72.0,65.0,-100.00,NE,37,3.0,6.0,80,0.00,,,0.00,,2013-04-28 11:21:00,
2013-04-28 01:32:00,72.0,65.0,-100.00,NE,37,3.0,6.0,80,0.00,,,0.00,,2013-04-28 11:32:00,
2013-04-28 01:41:00,71.0,65.0,-100.00,NE,49,4.0,6.0,81,0.00,,,-99.99,,2013-04-28 11:41:00,
2013-04-28 02:01:00,71.0,65.0,-100.00,NE,49,4.0,6.0,81,0.00,,,-99.99,,2013-04-28 12:01:00,
2013-04-28 02:11:00,71.0,65.0,-100.00,NE,49,4.0,6.0,81,0.00,,,-99.99,,2013-04-28 12:11:00,
2013-04-28 02:21:00,71.0,65.0,-100.00,NE,49,4.0,6.0,81,0.00,,,-99.99,,2013-04-28 12:21:00,
2013-04-28 02:32:00,71.0,65.0,-100.00,NE,49,4.0,6.0,81,0.00,,,-99.99,,2013-04-28 12:32:00,
2013-04-28 02:41:00,70.0,64.0,-100.00,North,349,2.0,6.0,82,0.00,,,-99.99,,2013-04-28 12:41:00,
2013-04-28 03:02:00,70.0,64.0,-100.00,North,349,2.0,6.0,82,0.00,,,-99.99,,2013-04-28 13:02:00,
2013-04-28 03:11:00,70.0,64.0,-100.00,North,349,2.0,6.0,82,0.00,,,-99.99,,2013-04-28 13:11:00,
2013-04-28 03:21:00,70.0,64.0,-100.00,North,349,2.0,6.0,82,0.00,,,-99.99,,2013-04-28 13:21:00,
2013-04-28 03:31:00,70.0,64.0,-100.00,North,349,2.0,6.0,82,0.00,,,-99.99,,2013-04-28 13:31:00,
2013-04-28 03:41:00,69.0,64.0,-100.00,NNW,328,2.0,5.0,83,0.00,,,0.00,,2013-04-28 13:41:00,
2013-04-28 04:01:00,69.0,64.0,-100.00,NNW,328,2.0,5.0,83,0.00,,,0.00,,2013-04-28 14:01:00,
2013-04-28 04:11:00,69.0,64.0,-100.00,NNW,328,2.0,5.0,83,0.00,,,0.00,,2013-04-28 14:11:00,
2013-04-28 04:21:00,69.0,64.0,-100.00,NNW,328,2.0,5.0,83,0.00,,,0.00,,2013-04-28 14:21:00,
2013-04-28 04:31:00,69.0,64.0,-100.00,NNW,328,2.0,5.0,83,0.00,,,0.00,,2013-04-28 14:31:00,
2013-04-28 04:41:00,69.0,64.0,-100.00,North,351,3.0,5.0,84,0.00,,,0.00,,2013-04-28 14:41:00,
2013-04-28 05:01:00,69.0,64.0,-100.00,North,351,3.0,5.0,84,0.00,,,0.00,,2013-04-28 15:01:00,
2013-04-28 05:12:00,69.0,64.0,-100.00,North,351,3.0,5.0,84,0.00,,,0.00,,2013-04-28 15:12:00,
2013-04-28 05:21:00,69.0,64.0,-100.00,North,351,3.0,5.0,84,0.00,,,0.00,,2013-04-28 15:21:00,
2013-04-28 05:32:00,69.0,64.0,-100.00,North,351,3.0,5.0,84,0.00,,,0.00,,2013-04-28 15:32:00,
2013-04-28 05:41:00,69.0,64.0,-100.00,NNE,17,3.0,7.0,85,0.00,,,0.00,,2013-04-28 15:41:00,
2013-04-28 06:03:00,69.0,64.0,-100.00,NNE,17,3.0,7.0,85,0.00,,,0.00,,2013-04-28 16:03:00,
2013-04-28 06:13:00,69.0,64.0,-100.00,NNE,17,3.0,7.0,85,0.00,,,0.00,,2013-04-28 16:13:00,
2013-04-28 06:23:00,69.0,64.0,-100.00,NNE,17,3.0,7.0,85,0.00,,,0.00,,2013-04-28 16:23:00,
2013-04-28 06:32:00,69.0,64.0,-100.00,NNE,17,3.0,7.0,85,0.00,,,0.00,,2013-04-28 16:32:00,
2013-04-28 06:41:00,70.0,66.0,-100.00,NE,35,3.0,6.0,86,0.00,,,0.00,,2013-04-28 16:41:00,
2013-04-28 07:02:00,70.0,66.0,-100.00,NE,35,3.0,6.0,86,0.00,,,0.00,,2013-04-28 17:02:00,
2013-04-28 07:12:00,70.0,66.0,-100.00,NE,35,3.0,6.0,86,0.00,,,0.00,,2013-04-28 17:12:00,
2013-04-28 07:21:00,70.0,66.0,-100.00,NE,35,3.0,6.0,86,0.00,,,0.00,,2013-04-28 17:21:00,
2013-04-28 07:32:00,70.0,66.0,-100.00,NE,35,3.0,6.0,86,0.00,,,0.00,,2013-04-28 17:32:00,
2013-04-28 07:41:00,73.0,68.0,-100.00,NNE,29,4.0,6.0,85,0.00,,,0.00,,2013-04-28 17:41:00,
2013-04-28 08:02:00,73.0,68.0,-100.00,NNE,29,4.0,6.0,85,0.00,,,0.00,,2013-04-28 18:02:00,
2013-04-28 08:12:00,73.0,68.0,-100.00,NNE,29,4.0,6.0,85,0.00,,,0.00,,2013-04-28 18:12:00,
2013-04-28 08:22:00,73.0,68.0,-100.00,NNE,29,4.0,6.0,85,0.00,,,0.00,,2013-04-28 18:22:00,
2013-04-28 08:32:00,73.0,68.0,-100.00,NNE,29,4.0,6.0,85,0.00,,,0.00,,2013-04-28 18:32:00,
2013-04-28 08:41:00,78.0,72.0,-100.00,NE,43,3.0,6.0,83,0.00,,,0.00,,2013-04-28 18:41:00,
2013-04-28 09:02:00,78.0,72.0,-100.00,NE,43,3.0,6.0,83,0.00,,,0.00,,2013-04-28 19:02:00,
2013-04-28 09:11:00,78.0,72.0,-100.00,NE,43,3.0,6.0,83,0.00,,,0.00,,2013-04-28 19:11:00,
2013-04-28 09:21:00,78.0,72.0,-100.00,NE,43,3.0,6.0,83,0.00,,,0.00,,2013-04-28 19:21:00,
2013-04-28 09:31:00,78.0,72.0,-100.00,NE,43,3.0,6.0,83,0.00,,,0.00,,2013-04-28 19:31:00,
2013-04-28 09:41:00,80.0,73.0,-100.00,South,169,5.0,10.0,79,0.00,,,0.00,,2013-04-28 19:41:00,
2013-04-28 10:01:00,80.0,73.0,-100.00,South,169,5.0,10.0,79,0.00,,,0.00,,2013-04-28 20:01:00,
2013-04-28 10:11:00,80.0,73.0,-100.00,South,169,5.0,10.0,79,0.00,,,0.00,,2013-04-28 20:11:00,
2013-04-28 10:22:00,80.0,73.0,-100.00,South,169,5.0,10.0,79,0.00,,,0.00,,2013-04-28 20:22:00,
2013-04-28 10:32:00,80.0,73.0,-100.00,South,169,5.0,10.0,79,0.00,,,0.00,,2013-04-28 20:32:00,
2013-04-28 10:41:00,80.0,71.0,-100.00,SSE,164,8.0,14.0,74,0.00,,,0.00,,2013-04-28 20:41:00,
2013-04-28 11:01:00,80.0,71.0,-100.00,SSE,164,8.0,14.0,74,0.00,,,0.00,,2013-04-28 21:01:00,
2013-04-28 11:11:00,80.0,71.0,-100.00,SSE,164,8.0,14.0,74,0.00,,,0.00,,2013-04-28 21:11:00,
2013-04-28 11:22:00,80.0,71.0,-100.00,SSE,164,8.0,14.0,74,0.00,,,0.00,,2013-04-28 21:22:00,
2013-04-28 11:32:00,80.0,71.0,-100.00,SSE,164,8.0,14.0,74,0.00,,,0.00,,2013-04-28 21:32:00,
2013-04-28 11:41:00,80.0,70.0,-100.00,SSE,164,8.0,16.0,72,0.00,,,0.00,,2013-04-28 21:41:00,
2013-04-28 12:03:00,80.0,70.0,-100.00,SSE,164,8.0,16.0,72,0.00,,,0.00,,2013-04-28 22:03:00,
2013-04-28 12:12:00,80.0,70.0,-100.00,SSE,164,8.0,16.0,72,0.00,,,0.00,,2013-04-28 22:12:00,
2013-04-28 12:22:00,80.0,70.0,-100.00,SSE,164,8.0,16.0,72,0.00,,,0.00,,2013-04-28 22:22:00,
2013-04-28 12:33:00,80.0,70.0,-100.00,SSE,164,8.0,16.0,72,0.00,,,0.00,,2013-04-28 22:33:00,
2013-04-28 12:41:00,80.0,68.0,-100.00,SSE,159,10.0,16.0,68,0.00,,,0.00,,2013-04-28 22:41:00,
2013-04-28 13:02:00,80.0,68.0,-100.00,SSE,159,10.0,16.0,68,0.00,,,0.00,,2013-04-28 23:02:00,
2013-04-28 13:12:00,80.0,68.0,-100.00,SSE,159,10.0,16.0,68,0.00,,,0.00,,2013-04-28 23:12:00,
2013-04-28 13:21:00,80.0,68.0,-100.00,SSE,159,10.0,16.0,68,0.00,,,0.00,,2013-04-28 23:21:00,
2013-04-28 13:32:00,80.0,68.0,-100.00,SSE,159,10.0,16.0,68,0.00,,,0.00,,2013-04-28 23:32:00,
2013-04-28 13:41:00,81.0,68.0,-100.00,SSE,154,9.0,15.0,65,0.00,,,0.00,,2013-04-28 23:41:00,
2013-04-28 14:01:00,81.0,68.0,-100.00,SSE,154,9.0,15.0,65,0.00,,,0.00,,2013-04-29 00:01:00,
2013-04-28 14:11:00,81.0,68.0,-100.00,SSE,154,9.0,15.0,65,0.00,,,0.00,,2013-04-29 00:11:00,
2013-04-28 14:22:00,81.0,68.0,-100.00,SSE,154,9.0,15.0,65,0.00,,,0.00,,2013-04-29 00:22:00,
2013-04-28 14:32:00,81.0,68.0,-100.00,SSE,154,9.0,15.0,65,0.00,,,0.00,,2013-04-29 00:32:00,
2013-04-28 14:41:00,80.0,69.0,-100.00,SSE,158,8.0,16.0,69,0.00,,,0.00,,2013-04-29 00:41:00,
2013-04-28 15:01:00,80.0,69.0,-100.00,SSE,158,8.0,16.0,69,0.00,,,0.00,,2013-04-29 01:01:00,
2013-04-28 15:12:00,80.0,69.0,-100.00,SSE,158,8.0,16.0,69,0.00,,,0.00,,2013-04-29 01:12:00,
2013-04-28 15:21:00,80.0,69.0,-100.00,SSE,158,8.0,16.0,69,0.00,,,0.00,,2013-04-29 01:21:00,
2013-04-28 15:32:00,80.0,69.0,-100.00,SSE,158,8.0,16.0,69,0.00,,,0.00,,2013-04-29 01:32:00,
2013-04-28 15:41:00,80.0,68.0,-100.00,SSE,166,7.0,14.0,67,0.00,,,0.00,,2013-04-29 01:41:00,
2013-04-28 16:01:00,80.0,68.0,-100.00,SSE,166,7.0,14.0,67,0.00,,,0.00,,2013-04-29 02:01:00,
2013-04-28 16:11:00,80.0,68.0,-100.00,SSE,166,7.0,14.0,67,0.00,,,0.00,,2013-04-29 02:11:00,
2013-04-28 16:21:00,80.0,68.0,-100.00,SSE,166,7.0,14.0,67,0.00,,,0.00,,2013-04-29 02:21:00,
2013-04-28 16:31:00,80.0,68.0,-100.00,SSE,166,7.0,14.0,67,0.00,,,0.00,,2013-04-29 02:31:00,
2013-04-28 16:41:00,79.0,68.0,-100.00,South,178,6.0,12.0,68,0.00,,,0.00,,2013-04-29 02:41:00,
2013-04-28 17:01:00,79.0,68.0,-100.00,South,178,6.0,12.0,68,0.00,,,0.00,,2013-04-29 03:01:00,
2013-04-28 17:12:00,79.0,68.0,-100.00,South,178,6.0,12.0,68,0.00,,,0.00,,2013-04-29 03:12:00,
2013-04-28 17:21:00,79.0,68.0,-100.00,South,178,6.0,12.0,68,0.00,,,0.00,,2013-04-29 03:21:00,
2013-04-28 17:33:00,79.0,68.0,-100.00,South,178,6.0,12.0,68,0.00,,,0.00,,2013-04-29 03:33:00,
2013-04-28 17:41:00,79.0,68.0,-100.00,South,181,4.0,10.0,68,0.00,,,0.00,,2013-04-29 03:41:00,
2013-04-28 18:02:00,79.0,68.0,-100.00,South,181,4.0,10.0,68,0.00,,,0.00,,2013-04-29 04:02:00,
2013-04-28 18:13:00,79.0,68.0,-100.00,South,181,4.0,10.0,68,0.00,,,0.00,,2013-04-29 04:13:00,
2013-04-28 18:23:00,79.0,68.0,-100.00,South,181,4.0,10.0,68,0.00,,,0.00,,2013-04-29 04:23:00,
2013-04-28 18:32:00,79.0,68.0,-100.00,South,181,4.0,10.0,68,0.00,,,0.00,,2013-04-29 04:32:00,
2013-04-28 18:41:00,77.0,66.0,-100.00,SSE,153,4.0,10.0,70,0.00,,,0.00,,2013-04-29 04:41:00,
2013-04-28 19:02:00,77.0,66.0,-100.00,SSE,153,4.0,10.0,70,0.00,,,0.00,,2013-04-29 05:02:00,
2013-04-28 19:12:00,77.0,66.0,-100.00,SSE,153,4.0,10.0,70,0.00,,,0.00,,2013-04-29 05:12:00,
2013-04-28 19:22:00,77.0,66.0,-100.00,SSE,153,4.0,10.0,70,0.00,,,0.00,,2013-04-29 05:22:00,
2013-04-28 19:32:00,77.0,66.0,-100.00,SSE,153,4.0,10.0,70,0.00,,,0.00,,2013-04-29 05:32:00,
2013-04-28 19:41:00,76.0,67.0,-100.00,SE,145,3.0,7.0,74,0.00,,,0.00,,2013-04-29 05:41:00,
2013-04-28 20:02:00,76.0,67.0,-100.00,SE,145,3.0,7.0,74,0.00,,,0.00,,2013-04-29 06:02:00,
2013-04-28 20:11:00,76.0,67.0,-100.00,SE,145,3.0,7.0,74,0.00,,,0.00,,2013-04-29 06:11:00,
2013-04-28 20:21:00,76.0,67.0,-100.00,SE,145,3.0,7.0,74,0.00,,,0.00,,2013-04-29 06:21:00,
2013-04-28 20:32:00,76.0,67.0,-100.00,SE,145,3.0,7.0,74,0.00,,,0.00,,2013-04-29 06:32:00,
2013-04-28 20:41:00,75.0,67.0,-100.00,SSE,166,2.0,3.0,77,0.00,,,0.00,,2013-04-29 06:41:00,
2013-04-28 21:01:00,75.0,67.0,-100.00,SSE,166,2.0,3.0,77,0.00,,,0.00,,2013-04-29 07:01:00,
2013-04-28 21:11:00,75.0,67.0,-100.00,SSE,166,2.0,3.0,77,0.00,,,0.00,,2013-04-29 07:11:00,
2013-04-28 21:21:00,75.0,67.0,-100.00,SSE,166,2.0,3.0,77,0.00,,,0.00,,2013-04-29 07:21:00,
2013-04-28 21:31:00,75.0,67.0,-100.00,SSE,166,2.0,3.0,77,0.00,,,0.00,,2013-04-29 07:31:00,
2013-04-28 21:41:00,74.0,67.0,-100.00,South,182,2.0,5.0,79,0.00,,,0.00,,2013-04-29 07:41:00,
2013-04-28 22:02:00,74.0,67.0,-100.00,South,182,2.0,5.0,79,0.00,,,0.00,,2013-04-29 08:02:00,
2013-04-28 22:11:00,74.0,67.0,-100.00,South,182,2.0,5.0,79,0.00,,,0.00,,2013-04-29 08:11:00,
2013-04-28 22:21:00,74.0,67.0,-100.00,South,182,2.0,5.0,79,0.00,,,0.00,,2013-04-29 08:21:00,
2013-04-28 22:31:00,74.0,67.0,-100.00,South,182,2.0,5.0,79,0.00,,,0.00,,2013-04-29 08:31:00,
2013-04-28 22:41:00,74.0,68.0,-100.00,South,186,2.0,6.0,81,0.00,,,0.00,,2013-04-29 08:41:00,
2013-04-28 23:01:00,74.0,68.0,-100.00,South,186,2.0,6.0,81,0.00,,,0.00,,2013-04-29 09:01:00,
2013-04-28 23:11:00,74.0,68.0,-100.00,South,186,2.0,6.0,81,0.00,,,0.00,,2013-04-29 09:11:00,
2013-04-28 23:21:00,74.0,68.0,-100.00,South,186,2.0,6.0,81,0.00,,,0.00,,2013-04-29 09:21:00,
2013-04-28 23:32:00,74.0,68.0,-100.00,South,186,2.0,6.0,81,0.00,,,0.00,,2013-04-29 09:32:00,
2013-04-28 23:41:00,73.0,68.0,-100.00,SSW,196,2.0,5.0,83,0.00,,,0.00,,2013-04-29 09:41:00,